createdAt,value
2022-12-01T00:01:11.075Z,5.14
2022-12-01T00:03:37.756Z,5.09
2022-12-01T00:06:22.876Z,5.29
2022-12-01T00:09:09.568Z,5.25
2022-12-01T00:11:37.509Z,5.21
2022-12-01T00:14:04.810Z,5.23
2022-12-01T00:16:31.313Z,5.32
2022-12-01T00:18:58.149Z,5.37
2022-12-01T00:21:25.325Z,5.33
2022-12-01T00:23:54.873Z,5.26
2022-12-01T00:26:22.034Z,5.30
2022-12-01T00:28:53.248Z,5.18
2022-12-01T00:31:19.789Z,5.26
2022-12-01T00:33:46.283Z,5.30
2022-12-01T00:36:12.485Z,5.40
2022-12-01T00:38:38.922Z,5.32
2022-12-01T00:41:05.286Z,5.33
2022-12-01T00:43:31.922Z,5.24
2022-12-01T00:45:58.278Z,5.15
2022-12-01T00:48:25.025Z,4.88
2022-12-01T00:50:52.760Z,5.14
2022-12-01T00:53:19.212Z,5.24
2022-12-01T00:55:45.322Z,5.08
2022-12-01T00:58:12.229Z,5.11
2022-12-01T01:00:38.549Z,5.06
2022-12-01T01:03:06.879Z,4.96
2022-12-01T01:05:41.100Z,4.98
2022-12-01T01:08:14.298Z,4.95
2022-12-01T01:10:42.553Z,4.80
2022-12-01T01:13:10.722Z,4.81
2022-12-01T01:15:37.703Z,4.77
2022-12-01T01:18:05.586Z,4.85
2022-12-01T01:20:32.690Z,4.89
2022-12-01T01:22:59.022Z,5.04
2022-12-01T01:25:25.110Z,5.15
2022-12-01T01:27:51.473Z,5.29
2022-12-01T01:30:19.710Z,5.29
2022-12-01T01:32:46.269Z,5.18
2022-12-01T01:35:12.345Z,5.35
2022-12-01T01:37:39.227Z,5.38
2022-12-01T01:40:06.267Z,5.29
2022-12-01T01:42:32.786Z,5.30
2022-12-01T01:44:58.866Z,5.36
2022-12-01T01:47:38.520Z,5.19
2022-12-01T01:50:09.352Z,5.29
2022-12-01T01:52:44.616Z,5.14
2022-12-01T01:55:12.117Z,5.25
2022-12-01T01:57:39.477Z,5.25
2022-12-01T02:00:13.181Z,5.16
2022-12-01T02:02:44.402Z,5.22
2022-12-01T02:05:20.219Z,5.11
2022-12-01T02:07:47.930Z,5.27
2022-12-01T02:10:21.553Z,5.18
2022-12-01T02:13:15.952Z,5.02
2022-12-01T02:16:06.094Z,5.29
2022-12-01T02:18:51.504Z,5.33
2022-12-01T02:21:39.201Z,5.34
2022-12-01T02:24:26.843Z,5.32
2022-12-01T02:27:31.487Z,5.33
2022-12-01T02:30:03.911Z,5.29
2022-12-01T02:32:53.018Z,5.38
2022-12-01T02:35:36.687Z,5.18
2022-12-01T02:38:27.826Z,5.42
2022-12-01T02:41:15.908Z,5.30
2022-12-01T02:44:04.532Z,5.36
2022-12-01T02:46:35.639Z,5.49
2022-12-01T02:49:07.441Z,5.37
2022-12-01T02:51:37.381Z,5.52
2022-12-01T02:54:05.231Z,5.53
2022-12-01T02:56:31.798Z,5.53
2022-12-01T02:58:57.915Z,5.61
2022-12-01T03:01:41.655Z,5.68
2022-12-01T03:04:16.582Z,5.59
2022-12-01T03:06:59.385Z,5.82
2022-12-01T03:09:33.358Z,5.83
2022-12-01T03:12:14.941Z,5.83
2022-12-01T03:14:44.414Z,5.82
2022-12-01T03:17:18.987Z,5.79
2022-12-01T03:19:52.825Z,5.81
2022-12-01T03:22:31.272Z,5.90
2022-12-01T03:25:00.556Z,5.75
2022-12-01T03:27:32.833Z,5.59
2022-12-01T03:30:01.318Z,5.51
2022-12-01T03:32:37.921Z,5.54
2022-12-01T03:35:08.326Z,5.51
2022-12-01T03:37:40.810Z,5.51
2022-12-01T03:40:11.421Z,5.53
2022-12-01T03:42:44.729Z,5.53
2022-12-01T03:45:35.850Z,5.47
2022-12-01T03:48:02.671Z,5.51
2022-12-01T03:50:48.796Z,5.61
2022-12-01T03:53:24.108Z,5.62
2022-12-01T03:55:55.787Z,5.49
2022-12-01T03:58:35.020Z,5.59
2022-12-01T04:01:03.085Z,5.56
2022-12-01T04:03:29.712Z,5.40
2022-12-01T04:05:57.347Z,5.39
2022-12-01T04:08:24.507Z,5.34
2022-12-01T04:10:50.955Z,5.29
2022-12-01T04:13:23.715Z,5.25
2022-12-01T04:15:54.393Z,5.25
2022-12-01T04:18:21.292Z,5.25
2022-12-01T04:20:49.094Z,5.13
2022-12-01T04:23:35.520Z,4.94
2022-12-01T04:26:04.224Z,4.81
2022-12-01T04:28:31.001Z,5.15
2022-12-01T04:30:57.141Z,5.12
2022-12-01T04:33:23.550Z,5.02
2022-12-01T04:35:57.997Z,5.05
2022-12-01T04:38:30.071Z,5.00
2022-12-01T04:40:57.109Z,4.70
2022-12-01T04:43:23.474Z,4.72
2022-12-01T04:45:49.796Z,4.84
2022-12-01T04:48:16.293Z,4.86
2022-12-01T04:50:42.602Z,4.66
2022-12-01T04:53:09.021Z,4.91
2022-12-01T04:55:38.615Z,5.06
2022-12-01T04:58:05.637Z,4.95
2022-12-01T05:00:32.764Z,4.89
2022-12-01T05:03:00.029Z,5.05
2022-12-01T05:05:26.388Z,5.14
2022-12-01T05:07:52.982Z,5.01
2022-12-01T05:10:19.122Z,4.80
2022-12-01T05:12:45.596Z,4.76
2022-12-01T05:15:12.467Z,4.65
2022-12-01T05:17:39.202Z,4.79
2022-12-01T05:20:25.599Z,4.89
2022-12-01T05:23:06.466Z,4.93
2022-12-01T05:25:33.340Z,4.86
2022-12-01T05:28:00.099Z,4.98
2022-12-01T05:30:28.683Z,5.01
2022-12-01T05:32:55.878Z,4.93
2022-12-01T05:35:22.023Z,5.02
2022-12-01T05:37:48.365Z,5.02
2022-12-01T05:40:14.541Z,4.97
2022-12-01T05:42:40.949Z,5.05
2022-12-01T05:45:07.459Z,4.98
2022-12-01T05:47:33.837Z,5.05
2022-12-01T05:50:05.246Z,5.15
2022-12-01T05:52:34.292Z,5.15
2022-12-01T05:55:01.385Z,5.07
2022-12-01T05:57:27.912Z,5.02
2022-12-01T05:59:54.190Z,5.07
2022-12-01T06:02:21.100Z,5.07
2022-12-01T06:04:47.424Z,4.91
2022-12-01T06:07:13.812Z,4.87
2022-12-01T06:09:39.960Z,4.98
2022-12-01T06:12:06.487Z,5.17
2022-12-01T06:14:32.584Z,5.19
2022-12-01T06:16:59.096Z,5.16
2022-12-01T06:19:25.263Z,5.01
2022-12-01T06:21:51.765Z,5.16
2022-12-01T06:24:17.964Z,5.28
2022-12-01T06:26:44.354Z,5.34
2022-12-01T06:29:10.545Z,5.20
2022-12-01T06:31:37.057Z,5.30
2022-12-01T06:34:03.282Z,5.55
2022-12-01T06:36:29.736Z,5.44
2022-12-01T06:38:55.811Z,5.67
2022-12-01T06:41:22.251Z,5.53
2022-12-01T06:43:48.475Z,5.59
2022-12-01T06:46:15.076Z,5.62
2022-12-01T06:48:41.336Z,5.69
2022-12-01T06:51:09.163Z,5.55
2022-12-01T06:53:37.052Z,5.62
2022-12-01T06:56:04.872Z,5.79
2022-12-01T06:58:32.028Z,5.56
2022-12-01T07:00:59.580Z,5.57
2022-12-01T07:03:26.227Z,5.67
2022-12-01T07:05:59.679Z,5.69
2022-12-01T07:08:27.739Z,5.76
2022-12-01T07:11:05.365Z,5.78
2022-12-01T07:13:33.745Z,5.74
2022-12-01T07:16:05.156Z,5.88
2022-12-01T07:18:32.457Z,5.87
2022-12-01T07:21:00.386Z,6.02
2022-12-01T07:23:26.557Z,5.89
2022-12-01T07:26:10.069Z,5.92
2022-12-01T07:28:36.103Z,5.82
2022-12-01T07:31:06.912Z,5.98
2022-12-01T07:33:33.450Z,6.15
2022-12-01T07:36:00.827Z,6.10
2022-12-01T07:38:29.040Z,6.11
2022-12-01T07:41:01.586Z,6.13
2022-12-01T07:43:29.359Z,6.05
2022-12-01T07:45:55.874Z,6.20
2022-12-01T07:48:22.047Z,6.08
2022-12-01T07:50:48.466Z,6.15
2022-12-01T07:53:14.726Z,5.87
2022-12-01T07:55:47.376Z,6.07
2022-12-01T07:58:13.488Z,5.90
2022-12-01T08:00:39.830Z,5.99
2022-12-01T08:03:06.033Z,6.02
2022-12-01T08:05:32.606Z,6.02
2022-12-01T08:07:59.089Z,6.05
2022-12-01T08:10:25.833Z,6.11
2022-12-01T08:12:52.097Z,6.29
2022-12-01T08:15:18.556Z,6.21
2022-12-01T08:17:44.734Z,6.31
2022-12-01T08:20:11.793Z,6.14
2022-12-01T08:22:38.262Z,6.24
2022-12-01T08:25:06.203Z,6.17
2022-12-01T08:27:34.501Z,6.24
2022-12-01T08:30:01.733Z,6.31
2022-12-01T08:32:29.690Z,6.24
2022-12-01T08:34:56.374Z,6.31
2022-12-01T08:37:22.732Z,6.21
2022-12-01T08:39:49.791Z,6.03
2022-12-01T08:42:16.472Z,5.99
2022-12-01T08:44:43.041Z,6.16
2022-12-01T08:47:12.036Z,5.78
2022-12-01T08:49:41.098Z,5.94
2022-12-01T08:52:07.507Z,5.79
2022-12-01T08:54:34.151Z,5.98
2022-12-01T08:57:00.380Z,5.83
2022-12-01T08:59:27.111Z,5.90
2022-12-01T09:01:53.478Z,6.15
2022-12-01T09:04:24.038Z,6.18
2022-12-01T09:06:51.938Z,6.04
2022-12-01T09:09:21.764Z,6.04
2022-12-01T09:11:48.331Z,5.93
2022-12-01T09:14:17.281Z,6.01
2022-12-01T09:16:45.640Z,6.04
2022-12-01T09:19:13.544Z,5.92
2022-12-01T09:21:42.134Z,6.16
2022-12-01T09:24:11.354Z,6.29
2022-12-01T09:26:37.531Z,6.18
2022-12-01T09:29:06.808Z,5.75
2022-12-01T09:31:33.646Z,5.91
2022-12-01T09:34:03.378Z,5.94
2022-12-01T09:36:31.208Z,5.70
2022-12-01T09:38:58.170Z,5.78
2022-12-01T09:41:37.204Z,5.79
2022-12-01T09:44:19.923Z,5.87
2022-12-01T09:46:57.136Z,5.93
2022-12-01T09:49:35.242Z,5.75
2022-12-01T09:52:01.404Z,5.69
2022-12-01T09:54:28.571Z,5.64
2022-12-01T09:56:56.393Z,5.59
2022-12-01T09:59:26.341Z,5.70
2022-12-01T10:02:00.388Z,5.90
2022-12-01T10:04:34.961Z,6.11
2022-12-01T10:07:19.503Z,5.92
2022-12-01T10:09:58.667Z,5.88
2022-12-01T10:12:30.372Z,5.86
2022-12-01T10:15:05.871Z,5.80
2022-12-01T10:17:56.461Z,5.85
2022-12-01T10:20:48.984Z,5.81
2022-12-01T10:23:34.251Z,6.00
2022-12-01T10:26:13.863Z,5.92
2022-12-01T10:28:42.959Z,5.89
2022-12-01T10:31:19.098Z,5.92
2022-12-01T10:33:58.433Z,5.84
2022-12-01T10:36:27.618Z,5.74
2022-12-01T10:38:54.131Z,5.89
2022-12-01T10:41:23.757Z,5.81
2022-12-01T10:43:51.886Z,5.96
2022-12-01T10:46:24.086Z,5.94
2022-12-01T10:48:55.769Z,5.81
2022-12-01T10:51:24.004Z,5.84
2022-12-01T10:53:57.572Z,5.90
2022-12-01T10:56:24.290Z,5.92
2022-12-01T10:58:56.917Z,5.95
2022-12-01T11:01:31.329Z,5.89
2022-12-01T11:04:05.295Z,6.19
2022-12-01T11:06:32.445Z,6.17
2022-12-01T11:09:06.118Z,6.35
2022-12-01T11:11:32.491Z,6.31
2022-12-01T11:14:01.995Z,6.24
2022-12-01T11:16:54.598Z,6.45
2022-12-01T11:19:26.995Z,6.51
2022-12-01T11:21:57.333Z,6.43
2022-12-01T11:24:42.066Z,6.29
2022-12-01T11:27:16.552Z,5.82
2022-12-01T11:29:43.186Z,5.96
2022-12-01T11:32:30.812Z,6.16
2022-12-01T11:35:12.642Z,5.96
2022-12-01T11:38:13.113Z,6.18
2022-12-01T11:40:50.732Z,6.09
2022-12-01T11:43:35.717Z,6.06
2022-12-01T11:46:05.018Z,5.66
2022-12-01T11:48:36.288Z,5.83
2022-12-01T11:51:04.494Z,5.69
2022-12-01T11:53:38.576Z,5.66
2022-12-01T11:56:24.120Z,5.49
2022-12-01T11:59:03.656Z,5.60
2022-12-01T12:01:38.991Z,5.42
2022-12-01T12:04:26.680Z,5.17
2022-12-01T12:07:16.170Z,5.39
2022-12-01T12:10:01.343Z,5.35
2022-12-01T12:12:27.428Z,5.33
2022-12-01T12:15:31.022Z,5.58
2022-12-01T12:18:13.998Z,5.78
2022-12-01T12:20:40.619Z,5.75
2022-12-01T12:23:40.605Z,5.75
2022-12-01T12:26:51.868Z,5.77
2022-12-01T12:29:52.154Z,5.74
2022-12-01T12:32:34.079Z,5.80
2022-12-01T12:35:00.223Z,5.63
2022-12-01T12:37:51.417Z,5.69
2022-12-01T12:40:35.798Z,5.60
2022-12-01T12:43:09.117Z,5.84
2022-12-01T12:46:03.068Z,5.92
2022-12-01T12:49:03.905Z,5.83
2022-12-01T12:51:37.545Z,5.74
2022-12-01T12:54:29.242Z,5.90
2022-12-01T12:57:02.560Z,5.98
2022-12-01T12:59:38.731Z,5.90
2022-12-01T13:02:22.361Z,6.01
2022-12-01T13:04:52.182Z,5.83
2022-12-01T13:07:44.274Z,6.11
2022-12-01T13:10:29.440Z,5.99
2022-12-01T13:13:36.992Z,6.00
2022-12-01T13:16:09.926Z,5.89
2022-12-01T13:18:49.045Z,6.06
2022-12-01T13:21:18.642Z,5.84
2022-12-01T13:23:48.964Z,5.87
2022-12-01T13:26:19.350Z,5.98
2022-12-01T13:28:50.672Z,5.98
2022-12-01T13:31:19.187Z,5.89
2022-12-01T13:34:04.112Z,5.78
2022-12-01T13:36:48.395Z,5.99
2022-12-01T13:39:36.576Z,5.64
2022-12-01T13:42:07.623Z,5.88
2022-12-01T13:44:36.775Z,5.87
2022-12-01T13:47:09.281Z,6.15
2022-12-01T13:49:39.929Z,5.93
2022-12-01T13:52:21.861Z,6.09
2022-12-01T13:55:09.467Z,6.09
2022-12-01T13:57:44.172Z,6.15
2022-12-01T14:00:23.377Z,6.16
2022-12-01T14:03:32.703Z,6.16
2022-12-01T14:06:20.281Z,6.13
2022-12-01T14:08:52.429Z,6.28
2022-12-01T14:11:39.165Z,6.23
2022-12-01T14:14:08.771Z,6.00
2022-12-01T14:16:47.471Z,5.89
2022-12-01T14:19:43.145Z,6.06
2022-12-01T14:22:38.511Z,6.08
2022-12-01T14:25:20.121Z,5.95
2022-12-01T14:27:52.614Z,6.07
2022-12-01T14:30:41.507Z,6.04
2022-12-01T14:33:39.038Z,6.11
2022-12-01T14:36:24.053Z,6.20
2022-12-01T14:38:57.823Z,6.16
2022-12-01T14:41:27.499Z,6.05
2022-12-01T14:44:04.060Z,6.26
2022-12-01T14:46:55.789Z,6.08
2022-12-01T14:49:31.587Z,6.23
2022-12-01T14:52:06.709Z,6.20
2022-12-01T14:54:42.777Z,6.16
2022-12-01T14:57:16.549Z,6.05
2022-12-01T14:59:44.122Z,6.05
2022-12-01T15:02:13.029Z,6.00
2022-12-01T15:05:12.108Z,5.97
2022-12-01T15:07:47.058Z,5.72
2022-12-01T15:10:22.479Z,5.59
2022-12-01T15:12:50.567Z,5.52
2022-12-01T15:15:24.504Z,5.56
2022-12-01T15:17:54.776Z,5.62
2022-12-01T15:20:38.584Z,5.73
2022-12-01T15:23:11.835Z,5.97
2022-12-01T15:25:42.247Z,6.10
2022-12-01T15:28:18.088Z,6.39
2022-12-01T15:30:54.617Z,6.31
2022-12-01T15:33:35.384Z,6.37
2022-12-01T15:36:04.199Z,6.31
2022-12-01T15:38:38.346Z,6.32
2022-12-01T15:41:28.455Z,6.02
2022-12-01T15:43:56.774Z,6.09
2022-12-01T15:46:31.468Z,6.22
2022-12-01T15:49:28.937Z,6.22
2022-12-01T15:52:08.622Z,6.21
2022-12-01T15:54:37.058Z,6.19
2022-12-01T15:57:06.295Z,6.15
2022-12-01T15:59:38.588Z,6.17
2022-12-01T16:02:27.056Z,6.26
2022-12-01T16:05:08.737Z,6.39
2022-12-01T16:08:10.940Z,6.49
2022-12-01T16:10:29.822Z,6.58
2022-12-01T16:13:33.546Z,6.47
2022-12-01T16:16:00.388Z,6.60
2022-12-01T16:18:33.718Z,6.53
2022-12-01T16:21:04.528Z,6.60
2022-12-01T16:23:32.240Z,6.66
2022-12-01T16:26:01.917Z,6.70
2022-12-01T16:28:36.660Z,6.69
2022-12-01T16:31:05.613Z,6.67
2022-12-01T16:33:36.880Z,6.49
2022-12-01T16:36:03.723Z,6.63
2022-12-01T16:38:30.672Z,6.72
2022-12-01T16:41:14.210Z,6.60
2022-12-01T16:43:50.212Z,6.52
2022-12-01T16:46:30.916Z,6.48
2022-12-01T16:48:58.458Z,6.51
2022-12-01T16:51:35.485Z,6.43
2022-12-01T16:54:09.568Z,6.16
2022-12-01T16:56:36.066Z,6.19
2022-12-01T16:59:02.383Z,6.11
2022-12-01T17:01:29.136Z,6.26
2022-12-01T17:03:56.063Z,5.86
2022-12-01T17:06:22.692Z,5.92
2022-12-01T17:08:49.238Z,6.02
2022-12-01T17:11:15.689Z,5.93
2022-12-01T17:13:41.977Z,6.08
2022-12-01T17:16:13.837Z,6.13
2022-12-01T17:18:43.197Z,6.16
2022-12-01T17:21:10.916Z,6.15
2022-12-01T17:23:38.210Z,6.07
2022-12-01T17:26:10.749Z,5.95
2022-12-01T17:28:38.159Z,5.89
2022-12-01T17:31:06.087Z,6.04
2022-12-01T17:33:33.243Z,6.08
2022-12-01T17:36:10.011Z,6.06
2022-12-01T17:38:38.594Z,6.06
2022-12-01T17:41:08.309Z,6.19
2022-12-01T17:43:36.002Z,6.10
2022-12-01T17:46:04.973Z,5.95
2022-12-01T17:48:49.823Z,6.06
2022-12-01T17:51:19.474Z,6.16
2022-12-01T17:53:47.313Z,6.10
2022-12-01T17:56:15.603Z,5.97
2022-12-01T17:58:42.531Z,6.04
2022-12-01T18:01:18.330Z,6.07
2022-12-01T18:03:47.804Z,6.29
2022-12-01T18:06:15.852Z,6.34
2022-12-01T18:08:42.835Z,6.10
2022-12-01T18:11:13.777Z,6.24
2022-12-01T18:13:43.386Z,6.24
2022-12-01T18:16:22.147Z,6.21
2022-12-01T18:18:49.485Z,6.15
2022-12-01T18:21:18.087Z,6.33
2022-12-01T18:23:59.335Z,6.39
2022-12-01T18:26:27.422Z,6.38
2022-12-01T18:28:55.824Z,6.48
2022-12-01T18:31:26.668Z,6.52
2022-12-01T18:33:53.309Z,6.36
2022-12-01T18:36:22.859Z,6.38
2022-12-01T18:38:51.103Z,6.40
2022-12-01T18:41:19.435Z,6.48
2022-12-01T18:43:46.496Z,6.54
2022-12-01T18:46:15.925Z,6.55
2022-12-01T18:48:47.600Z,6.43
2022-12-01T18:51:14.996Z,6.44
2022-12-01T18:53:42.006Z,6.48
2022-12-01T18:56:11.714Z,6.41
2022-12-01T18:58:39.516Z,6.54
2022-12-01T19:01:23.819Z,6.66
2022-12-01T19:03:50.556Z,6.58
2022-12-01T19:06:17.670Z,6.47
2022-12-01T19:08:46.562Z,6.47
2022-12-01T19:11:13.713Z,6.57
2022-12-01T19:13:40.302Z,6.49
2022-12-01T19:16:09.844Z,6.42
2022-12-01T19:18:37.491Z,6.47
2022-12-01T19:21:06.133Z,6.16
2022-12-01T19:23:33.615Z,6.00
2022-12-01T19:26:06.279Z,6.15
2022-12-01T19:28:35.084Z,6.08
2022-12-01T19:31:10.489Z,5.89
2022-12-01T19:33:37.264Z,5.84
2022-12-01T19:36:09.238Z,6.08
2022-12-01T19:38:35.455Z,6.21
2022-12-01T19:41:02.855Z,6.22
2022-12-01T19:43:29.267Z,6.15
2022-12-01T19:45:55.893Z,6.20
2022-12-01T19:48:22.416Z,6.24
2022-12-01T19:50:49.615Z,6.15
2022-12-01T19:53:15.826Z,6.21
2022-12-01T19:55:42.379Z,6.04
2022-12-01T19:58:08.566Z,5.94
2022-12-01T20:00:35.578Z,5.73
2022-12-01T20:03:01.888Z,5.69
2022-12-01T20:05:28.732Z,5.87
2022-12-01T20:07:55.058Z,5.87
2022-12-01T20:10:21.778Z,5.97
2022-12-01T20:12:49.339Z,5.90
2022-12-01T20:15:16.150Z,6.10
2022-12-01T20:17:43.035Z,6.17
2022-12-01T20:20:10.928Z,5.96
2022-12-01T20:22:38.060Z,5.92
2022-12-01T20:25:06.017Z,5.58
2022-12-01T20:27:32.365Z,5.74
2022-12-01T20:29:58.910Z,5.78
2022-12-01T20:32:25.245Z,5.88
2022-12-01T20:34:52.097Z,5.86
2022-12-01T20:37:18.893Z,5.74
2022-12-01T20:39:46.752Z,5.52
2022-12-01T20:42:12.984Z,5.72
2022-12-01T20:44:39.803Z,5.50
2022-12-01T20:47:06.099Z,5.76
2022-12-01T20:49:33.126Z,5.92
2022-12-01T20:51:59.335Z,5.92
2022-12-01T20:54:28.816Z,5.76
2022-12-01T20:56:56.132Z,5.78
2022-12-01T20:59:22.794Z,5.68
2022-12-01T21:01:49.214Z,5.86
2022-12-01T21:04:16.162Z,5.92
2022-12-01T21:06:42.554Z,5.94
2022-12-01T21:09:12.452Z,5.99
2022-12-01T21:12:06.320Z,6.05
2022-12-01T21:14:53.749Z,6.29
2022-12-01T21:17:43.622Z,5.90
2022-12-01T21:20:21.282Z,5.75
2022-12-01T21:22:49.333Z,5.53
2022-12-01T21:25:22.145Z,5.44
2022-12-01T21:27:49.032Z,5.35
2022-12-01T21:30:25.663Z,5.47
2022-12-01T21:32:53.221Z,5.58
2022-12-01T21:35:23.100Z,5.58
2022-12-01T21:37:53.776Z,5.65
2022-12-01T21:40:23.557Z,5.81
2022-12-01T21:42:50.850Z,5.75
2022-12-01T21:45:31.555Z,5.77
2022-12-01T21:48:08.162Z,5.95
2022-12-01T21:50:35.015Z,6.01
2022-12-01T21:53:01.368Z,6.24
2022-12-01T21:55:33.010Z,6.14
2022-12-01T21:57:59.361Z,6.05
2022-12-01T22:00:32.686Z,6.17
2022-12-01T22:03:07.875Z,6.05
2022-12-01T22:06:07.109Z,5.99
2022-12-01T22:08:39.382Z,6.02
2022-12-01T22:11:28.335Z,5.98
2022-12-01T22:14:00.807Z,6.15
2022-12-01T22:16:32.933Z,6.10
2022-12-01T22:19:01.844Z,6.22
2022-12-01T22:21:38.722Z,6.36
2022-12-01T22:24:07.677Z,6.35
2022-12-01T22:26:40.653Z,6.53
2022-12-01T22:29:25.643Z,6.41
2022-12-01T22:32:19.066Z,6.31
2022-12-01T22:34:50.283Z,6.00
2022-12-01T22:37:28.000Z,5.96
2022-12-01T22:39:55.903Z,5.78
2022-12-01T22:42:33.215Z,5.90
2022-12-01T22:45:18.010Z,5.70
2022-12-01T22:47:44.652Z,5.58
2022-12-01T22:50:40.042Z,5.64
2022-12-01T22:53:15.554Z,5.77
2022-12-01T22:55:42.020Z,6.00
2022-12-01T22:58:21.730Z,6.08
2022-12-01T23:00:47.817Z,5.94
2022-12-01T23:03:15.536Z,5.80
2022-12-01T23:05:41.908Z,6.02
2022-12-01T23:08:12.497Z,5.97
2022-12-01T23:10:40.133Z,6.12
2022-12-01T23:13:23.851Z,6.05
2022-12-01T23:15:52.826Z,6.08
2022-12-01T23:18:19.241Z,5.89
2022-12-01T23:20:50.768Z,5.58
2022-12-01T23:23:19.574Z,5.32
2022-12-01T23:25:48.550Z,5.13
2022-12-01T23:28:15.482Z,5.40
2022-12-01T23:30:43.590Z,5.40
2022-12-01T23:33:18.386Z,5.49
2022-12-01T23:35:57.059Z,5.41
2022-12-01T23:38:28.830Z,5.42
2022-12-01T23:40:58.686Z,5.51
2022-12-01T23:43:29.152Z,5.34
2022-12-01T23:46:19.816Z,5.53
2022-12-01T23:48:46.134Z,5.28
2022-12-01T23:51:17.772Z,5.48
2022-12-01T23:53:45.335Z,5.36
2022-12-01T23:56:16.251Z,5.15
2022-12-01T23:58:43.449Z,5.23
